createdAt,value
2018-11-01T00:00:38.451Z,11.10
2018-11-01T00:05:42.655Z,9.73
2018-11-01T00:10:46.103Z,11.77
2018-11-01T00:15:49.386Z,11.40
2018-11-01T00:20:52.626Z,13.10
2018-11-01T00:25:55.825Z,13.03
2018-11-01T00:30:59.047Z,13.90
2018-11-01T00:36:02.269Z,13.27
2018-11-01T00:41:05.733Z,10.53
2018-11-01T00:46:08.958Z,10.87
2018-11-01T00:51:12.168Z,10.57
2018-11-01T00:56:15.373Z,10.00
2018-11-01T01:01:18.593Z,9.00
2018-11-01T01:06:21.800Z,11.17
2018-11-01T01:11:24.974Z,11.93
2018-11-01T01:16:28.836Z,11.27
2018-11-01T01:21:32.083Z,10.93
2018-11-01T01:26:35.305Z,10.30
2018-11-01T01:31:38.512Z,10.43
2018-11-01T01:36:41.702Z,10.30
2018-11-01T01:41:44.904Z,8.93
2018-11-01T01:46:48.100Z,10.60
2018-11-01T01:51:51.290Z,10.23
2018-11-01T01:56:54.467Z,12.17
2018-11-01T02:01:57.689Z,10.03
2018-11-01T02:07:00.915Z,12.47
2018-11-01T02:12:04.216Z,9.67
2018-11-01T02:17:07.475Z,11.27
2018-11-01T02:22:10.626Z,9.40
2018-11-01T02:27:13.824Z,11.60
2018-11-01T02:32:17.018Z,10.37
2018-11-01T02:37:20.281Z,10.73
2018-11-01T02:42:23.482Z,10.77
2018-11-01T02:47:26.983Z,9.67
2018-11-01T02:52:30.257Z,11.37
2018-11-01T02:57:33.537Z,9.30
2018-11-01T03:02:36.865Z,8.03
2018-11-01T03:07:40.099Z,9.50
2018-11-01T03:12:43.339Z,9.30
2018-11-01T03:17:46.503Z,12.07
2018-11-01T03:22:49.774Z,10.00
2018-11-01T03:27:53.069Z,9.07
2018-11-01T03:32:56.791Z,10.00
2018-11-01T03:38:00.081Z,11.57
2018-11-01T03:43:03.297Z,13.93
2018-11-01T03:48:06.803Z,8.83
2018-11-01T03:53:10.045Z,9.20
2018-11-01T03:58:13.266Z,12.60
2018-11-01T04:03:16.456Z,12.23
2018-11-01T04:08:19.676Z,10.13
2018-11-01T04:13:22.946Z,9.23
2018-11-01T04:18:26.186Z,9.83
2018-11-01T04:23:29.672Z,9.80
2018-11-01T04:28:32.927Z,8.37
2018-11-01T04:33:36.362Z,8.43
2018-11-01T04:38:39.443Z,8.00
2018-11-01T04:43:42.605Z,8.60
2018-11-01T04:48:46.233Z,10.63
2018-11-01T04:53:49.485Z,9.87
2018-11-01T04:58:52.850Z,9.60
2018-11-01T05:03:56.058Z,7.23
2018-11-01T05:08:59.430Z,11.10
2018-11-01T05:14:02.685Z,7.93
2018-11-01T05:19:06.466Z,8.83
2018-11-01T05:24:10.368Z,8.00
2018-11-01T05:29:13.833Z,9.93
2018-11-01T05:34:17.091Z,9.07
2018-11-01T05:39:20.416Z,8.13
2018-11-01T05:44:23.630Z,7.67
2018-11-01T05:49:27.113Z,6.70
2018-11-01T05:54:30.450Z,8.83
2018-11-01T05:59:33.706Z,6.80
2018-11-01T06:04:37.143Z,9.77
2018-11-01T06:09:40.349Z,5.67
2018-11-01T06:14:43.566Z,5.87
2018-11-01T06:19:46.947Z,7.50
2018-11-01T06:24:50.281Z,7.40
2018-11-01T06:29:53.528Z,5.37
2018-11-01T06:35:01.208Z,9.80
2018-11-01T06:40:04.524Z,6.90
2018-11-01T06:45:07.968Z,7.63
2018-11-01T06:50:11.348Z,8.40
2018-11-01T06:55:14.932Z,7.90
2018-11-01T07:00:18.384Z,5.03
2018-11-01T07:05:21.745Z,7.57
2018-11-01T07:10:24.948Z,6.30
2018-11-01T07:15:28.998Z,9.00
2018-11-01T07:20:32.258Z,8.20
2018-11-01T07:25:35.616Z,11.23
2018-11-01T07:30:38.872Z,8.40
2018-11-01T07:35:42.153Z,8.50
2018-11-01T07:40:45.579Z,9.57
2018-11-01T07:45:49.220Z,8.73
2018-11-01T07:50:52.579Z,9.23
2018-11-01T07:55:56.054Z,11.10
2018-11-01T08:00:59.666Z,10.57
2018-11-01T08:06:03.495Z,11.40
2018-11-01T08:11:06.887Z,9.80
2018-11-01T08:16:10.144Z,10.27
2018-11-01T08:21:13.540Z,10.63
2018-11-01T08:26:16.708Z,10.67
2018-11-01T08:31:20.138Z,8.70
2018-11-01T08:36:23.724Z,11.80
2018-11-01T08:41:26.994Z,9.47
2018-11-01T08:46:30.648Z,9.27
2018-11-01T08:51:33.839Z,13.33
2018-11-01T08:56:37.150Z,11.30
2018-11-01T09:01:41.121Z,15.87
2018-11-01T09:06:44.463Z,9.73
2018-11-01T09:11:47.786Z,17.43
2018-11-01T09:16:51.226Z,14.97
2018-11-01T09:21:54.811Z,17.47
2018-11-01T09:26:58.332Z,16.10
2018-11-01T09:32:01.540Z,20.80
2018-11-01T09:37:05.305Z,18.47
2018-11-01T09:42:08.847Z,17.13
2018-11-01T09:47:12.963Z,17.20
2018-11-01T09:52:16.016Z,14.90
2018-11-01T09:57:19.229Z,18.43
2018-11-01T10:02:22.525Z,12.60
2018-11-01T10:07:25.756Z,14.53
2018-11-01T10:12:29.058Z,14.47
2018-11-01T10:17:32.950Z,13.50
2018-11-01T10:22:36.997Z,17.90
2018-11-01T10:27:40.287Z,14.13
2018-11-01T10:32:45.957Z,13.30
2018-11-01T10:37:49.239Z,17.33
2018-11-01T10:42:52.667Z,18.93
2018-11-01T10:47:56.594Z,11.63
2018-11-01T10:53:00.010Z,14.60
2018-11-01T10:58:03.948Z,13.40
2018-11-01T11:03:07.371Z,13.30
2018-11-01T11:08:10.841Z,15.23
2018-11-01T11:13:15.147Z,17.50
2018-11-01T11:18:18.405Z,19.53
2018-11-01T11:23:22.006Z,18.70
2018-11-01T11:28:25.279Z,16.80
2018-11-01T11:33:28.700Z,13.87
2018-11-01T11:38:32.116Z,15.07
2018-11-01T11:43:35.532Z,19.37
2018-11-01T11:48:38.789Z,13.73
2018-11-01T11:53:42.012Z,14.73
2018-11-01T11:58:45.570Z,21.47
2018-11-01T12:03:48.880Z,8.03
2018-11-01T12:08:52.176Z,12.27
2018-11-01T12:13:55.423Z,10.17
2018-11-01T12:18:58.720Z,13.83
2018-11-01T12:24:01.978Z,10.53
2018-11-01T12:29:05.896Z,9.63
2018-11-01T12:34:09.069Z,8.27
2018-11-01T12:39:12.245Z,8.40
2018-11-01T12:44:15.482Z,10.60
2018-11-01T12:49:18.792Z,18.63
2018-11-01T12:54:22.272Z,10.17
2018-11-01T12:59:25.769Z,9.53
2018-11-01T13:04:29.022Z,8.70
2018-11-01T13:09:32.481Z,8.93
2018-11-01T13:14:36.088Z,7.10
2018-11-01T13:19:39.360Z,11.93
2018-11-01T13:24:42.584Z,11.17
2018-11-01T13:29:46.073Z,11.43
2018-11-01T13:34:49.355Z,10.73
2018-11-01T13:39:52.741Z,9.17
2018-11-01T13:44:55.926Z,11.67
2018-11-01T13:49:59.212Z,6.00
2018-11-01T13:55:02.466Z,5.80
2018-11-01T14:00:05.793Z,10.10
2018-11-01T14:05:11.173Z,10.70
2018-11-01T14:10:15.751Z,6.60
2018-11-01T14:15:19.326Z,8.77
2018-11-01T14:20:22.642Z,7.80
2018-11-01T14:25:26.175Z,8.73
2018-11-01T14:30:29.541Z,8.20
2018-11-01T14:35:32.908Z,6.40
2018-11-01T14:40:36.228Z,8.93
2018-11-01T14:45:40.094Z,8.20
2018-11-01T14:50:43.388Z,5.20
2018-11-01T14:55:48.369Z,6.40
2018-11-01T15:00:50.235Z,8.93
2018-11-01T15:05:53.520Z,6.20
2018-11-01T15:10:57.173Z,7.03
2018-11-01T15:16:00.425Z,5.90
2018-11-01T15:21:04.475Z,7.43
2018-11-01T15:26:08.160Z,8.33
2018-11-01T15:31:11.573Z,4.27
2018-11-01T15:36:14.853Z,7.80
2018-11-01T15:41:18.372Z,5.10
2018-11-01T15:46:21.750Z,4.27
2018-11-01T15:51:25.028Z,5.83
2018-11-01T15:56:28.340Z,7.97
2018-11-01T16:01:31.797Z,4.90
2018-11-01T16:06:35.082Z,5.40
2018-11-01T16:11:38.948Z,6.67
2018-11-01T16:16:42.336Z,7.80
2018-11-01T16:21:45.631Z,7.20
2018-11-01T16:26:49.099Z,6.57
2018-11-01T16:31:52.490Z,6.13
2018-11-01T16:36:56.403Z,5.40
2018-11-01T16:41:59.834Z,7.40
2018-11-01T16:47:03.209Z,4.40
2018-11-01T16:52:06.581Z,8.27
2018-11-01T16:57:10.045Z,6.67
2018-11-01T17:02:13.316Z,7.83
2018-11-01T17:07:16.812Z,6.67
2018-11-01T17:12:20.547Z,8.60
2018-11-01T17:17:23.860Z,6.07
2018-11-01T17:22:27.683Z,5.53
2018-11-01T17:27:31.144Z,7.13
2018-11-01T17:32:38.998Z,8.57
2018-11-01T17:37:42.847Z,9.07
2018-11-01T17:42:46.206Z,10.40
2018-11-01T17:47:49.500Z,7.20
2018-11-01T17:52:52.774Z,9.90
2018-11-01T17:57:56.056Z,6.37
2018-11-01T18:02:59.582Z,5.60
2018-11-01T18:08:02.795Z,6.83
2018-11-01T18:13:06.139Z,8.00
2018-11-01T18:18:09.483Z,6.83
2018-11-01T18:23:12.853Z,6.33
2018-11-01T18:28:16.795Z,6.63
2018-11-01T18:33:20.035Z,5.67
2018-11-01T18:38:23.587Z,5.97
2018-11-01T18:43:26.940Z,8.63
2018-11-01T18:48:30.524Z,6.80
2018-11-01T18:53:39.035Z,6.30
2018-11-01T18:58:49.272Z,6.90
2018-11-01T19:03:57.443Z,8.13
2018-11-01T19:09:00.860Z,9.50
2018-11-01T19:14:04.408Z,5.47
2018-11-01T19:19:07.922Z,6.20
2018-11-01T19:24:11.374Z,4.93
2018-11-01T19:29:14.858Z,4.93
2018-11-01T19:34:18.230Z,6.00
2018-11-01T19:39:21.680Z,6.27
2018-11-01T19:44:25.042Z,5.23
2018-11-01T19:49:28.366Z,6.00
2018-11-01T19:54:31.757Z,4.30
2018-11-01T19:59:35.099Z,5.83
2018-11-01T20:04:38.424Z,4.43
2018-11-01T20:09:41.716Z,3.80
2018-11-01T20:14:45.319Z,4.80
2018-11-01T20:19:49.857Z,5.37
2018-11-01T20:24:53.333Z,4.10
2018-11-01T20:29:56.703Z,5.03
2018-11-01T20:35:00.167Z,6.53
2018-11-01T20:40:03.573Z,6.90
2018-11-01T20:45:08.056Z,5.90
2018-11-01T20:50:12.721Z,7.90
2018-11-01T20:55:16.067Z,5.67
2018-11-01T21:00:19.489Z,8.30
2018-11-01T21:05:22.738Z,11.70
2018-11-01T21:10:26.082Z,8.50
2018-11-01T21:15:29.413Z,5.80
2018-11-01T21:20:33.028Z,6.17
2018-11-01T21:25:36.316Z,7.70
2018-11-01T21:30:39.650Z,7.87
2018-11-01T21:35:43.335Z,7.10
2018-11-01T21:40:46.777Z,6.10
2018-11-01T21:45:50.731Z,9.07
2018-11-01T21:50:54.630Z,7.40
2018-11-01T21:55:57.963Z,9.07
2018-11-01T22:01:01.347Z,7.57
2018-11-01T22:06:12.069Z,8.73
2018-11-01T22:11:15.393Z,7.00
2018-11-01T22:16:18.882Z,10.30
2018-11-01T22:21:29.167Z,9.50
2018-11-01T22:26:32.461Z,10.73
2018-11-01T22:31:35.674Z,6.00
2018-11-01T22:36:39.212Z,6.60
2018-11-01T22:41:42.505Z,4.60
2018-11-01T22:46:46.528Z,9.60
2018-11-01T22:51:54.198Z,7.50
2018-11-01T22:56:57.438Z,6.83
2018-11-01T23:02:00.769Z,6.83
2018-11-01T23:07:04.088Z,5.93
2018-11-01T23:12:07.427Z,5.00
2018-11-01T23:17:10.634Z,4.47
2018-11-01T23:22:13.847Z,9.53
2018-11-01T23:27:17.052Z,6.57
2018-11-01T23:32:20.362Z,4.70
2018-11-01T23:37:28.767Z,6.30
2018-11-01T23:42:37.578Z,6.40
2018-11-01T23:47:46.171Z,4.77
2018-11-01T23:52:52.657Z,5.00
2018-11-01T23:57:55.902Z,6.70
